Wolfeboro, NH (03894)

5:48 PM EDT on July 06, 2015 (GMT -0400)
WCYC | | Change Station
CLOSE
Current Station
Personal Weather Station
Location: Wolfeboro, NH
Elevation: 524 ft
Nearby Weather Stations

Elev 524 ft 43.58 °N, 71.22 °W | Updated 14 seconds ago

Partly Cloudy
Partly Cloudy
84.4 °F
Feels Like 86 °F
N
2.0
Wind Variable Wind from SE
Gusts 8.0 mph

Today
High -- | Low -- °F
--% Chance of Precip.
Yesterday
High -- | Low -- °F
Precip. -- in
5:10 AM 8:28 PM
Waning Gibbous, 72% visible
Pressure 30.09 in
Visibility 10.0 miles
Clouds Mostly Cloudy 6500 ft
Heat Index 86 °F
Dew Point 65 °F
Humidity 52%
Rainfall 0.00 in
Snow Depth Not available.
UV 2 out of 12
Pollen 4.40 out of 12
Air Quality Not available.
Flu Activity Not available.
METAR KLCI 062135Z AUTO 20006KT 180V250 10SM BKN065 28/13 A3009 RMK AO1

More Conditions Fewer Conditions

Pressure 30.09 in
Visibility 10.0 miles
Clouds Mostly Cloudy 6500 ft
Heat Index 86 °F
Dew Point 65 °F
Humidity 52%
Rainfall 0.00 in
Snow Depth Not available.
UV 2 out of 12
Pollen 4.40 out of 12
Air Quality Not available.
Flu Activity Not available.
METAR KLCI 062135Z AUTO 20006KT 180V250 10SM BKN065 28/13 A3009 RMK AO1

More Conditions Fewer Conditions

10-Day Weather Forecast

×

Almanac

Astronomy

Jul. 06, 2015 Rise Set
Actual Time
Civil Twilight
Nautical Twilight
Astronomical Twilight
Moon
Length of Visible Light
Length of Day
Tomorrow will be .
, % of the Moon is Illuminated

Today's Extremes

State Highs State Lows

Community

WunderPhotos

Upload Photos

1,835,663 photos uploaded!

WunderBlogs® & News

Nearby

Air Quality

  Air Quality AQ Index Pollutant
Not available.

Snow Depth

Station Depth Elevation

Earthquake Activity

City Distance Mag. Time & Date
Minimum magnitude displayed is 2.5.

Coastal Water Temperatures

Place Temperature

Stations

Nearby Weather Stations

Station Location Temp. Windchill Dew Point Humidity Wind Precip. Elev Updated Type